Time;durP1;ratioP1;P1;durP2;ratioP2;P2;SDS_P1;SDS_P2;PMS_P1;PMS_P2;Temp;Humidity;BMP_temperature;BMP_pressure;BME280_temperature;BME280_humidity;BME280_pressure;Samples;Min_cycle;Max_cycle;Signal;HPM_P1;HPM_P2
2021/04/07 00:02:19;;;;;;;4.18;0.90;;;;;;;4.42;54.29;98619.63;5104772;28;20084;-61
2021/04/07 00:04:53;;;;;;;4.25;1.05;;;;;;;4.49;53.81;98620.41;5104611;28;20028;-61
2021/04/07 00:07:18;;;;;;;5.03;0.90;;;;;;;4.48;54.10;98616.97;5104634;28;20016;-61
2021/04/07 00:09:44;;;;;;;6.43;1.15;;;;;;;4.54;53.80;98619.47;5104742;28;20027;-62
2021/04/07 00:12:09;;;;;;;4.32;0.82;;;;;;;4.61;53.65;98621.97;5104213;28;20479;-61
2021/04/07 00:14:35;;;;;;;7.10;1.20;;;;;;;4.59;53.37;98624.56;5104785;28;20356;-61
2021/04/07 00:17:00;;;;;;;2.85;0.80;;;;;;;4.59;53.06;98627.13;5104277;28;20515;-61
2021/04/07 00:19:25;;;;;;;5.85;0.98;;;;;;;4.59;53.11;98620.28;5104410;28;20028;-61
2021/04/07 00:21:51;;;;;;;2.60;0.90;;;;;;;4.63;53.11;98625.38;5104194;28;20107;-61
2021/04/07 00:24:16;;;;;;;5.50;1.23;;;;;;;4.59;53.09;98627.13;5104378;28;20024;-61
2021/04/07 00:26:41;;;;;;;10.57;1.40;;;;;;;4.64;53.16;98630.50;5103986;28;20023;-61
2021/04/07 00:29:07;;;;;;;5.35;1.30;;;;;;;4.68;53.47;98631.31;5103993;28;20126;-60
2021/04/07 00:31:32;;;;;;;8.85;1.05;;;;;;;4.70;53.35;98624.41;5104080;28;20031;-61
2021/04/07 00:33:57;;;;;;;7.00;1.00;;;;;;;4.68;53.89;98628.75;5104219;28;20577;-61
2021/04/07 00:36:23;;;;;;;4.50;1.10;;;;;;;4.70;53.86;98624.41;5104315;28;20023;-61
2021/04/07 00:38:48;;;;;;;5.65;1.15;;;;;;;4.71;54.35;98632.09;5103966;28;20062;-61
2021/04/07 00:41:13;;;;;;;4.30;0.82;;;;;;;4.76;54.17;98636.34;5103872;28;20028;-61
2021/04/07 00:43:39;;;;;;;4.95;1.20;;;;;;;4.77;54.43;98630.31;5103955;28;20154;-61
2021/04/07 00:46:04;;;;;;;4.28;0.90;;;;;;;4.76;55.26;98633.78;5104063;28;20024;-61
2021/04/07 00:48:30;;;;;;;3.70;1.30;;;;;;;4.73;55.77;98636.38;5103950;28;20393;-61
2021/04/07 00:50:55;;;;;;;7.25;1.20;;;;;;;4.75;55.57;98638.06;5104185;28;20050;-61
2021/04/07 00:53:21;;;;;;;4.70;1.00;;;;;;;4.79;55.72;98642.28;5103881;28;20016;-61
2021/04/07 00:55:46;;;;;;;4.90;1.58;;;;;;;4.81;55.93;98637.97;5103217;28;20049;-61
2021/04/07 00:58:16;;;;;;;2.47;0.90;;;;;;;4.76;56.68;98629.47;5103221;28;20480;-61
2021/04/07 01:00:42;;;;;;;5.75;1.45;;;;;;;4.77;57.31;98635.47;5103872;28;20020;-61
2021/04/07 01:03:11;;;;;;;3.85;1.30;;;;;;;4.78;57.73;98637.16;5103673;28;20024;-61
2021/04/07 01:05:37;;;;;;;5.20;1.00;;;;;;;4.79;57.97;98641.44;5103614;28;20024;-61
2021/04/07 01:08:02;;;;;;;5.65;1.23;;;;;;;4.79;57.51;98639.72;5103526;28;20031;-61
2021/04/07 01:10:28;;;;;;;8.45;1.10;;;;;;;4.81;58.36;98643.13;5103521;28;20028;-61
2021/04/07 01:12:54;;;;;;;10.00;1.48;;;;;;;4.89;57.68;98640.44;5103401;28;20032;-61
2021/04/07 01:15:20;;;;;;;5.50;0.88;;;;;;;4.89;58.06;98644.75;5103433;28;20028;-62
2021/04/07 01:17:46;;;;;;;6.18;1.10;;;;;;;4.93;58.42;98642.13;5103092;28;20036;-60
2021/04/07 01:20:19;;;;;;;7.50;1.15;;;;;;;4.92;59.25;98640.41;5103553;28;20039;-60
2021/04/07 01:22:51;;;;;;;6.47;1.30;;;;;;;4.92;59.60;98644.72;5103221;28;20024;-61
2021/04/07 01:25:17;;;;;;;8.20;1.10;;;;;;;4.93;59.48;98654.13;5103005;28;20024;-61
2021/04/07 01:27:42;;;;;;;6.45;1.05;;;;;;;4.91;59.50;98649.00;5103077;28;20019;-60
2021/04/07 01:30:10;;;;;;;5.80;1.00;;;;;;;4.89;59.60;98653.28;5103322;28;20508;-61
2021/04/07 01:32:37;;;;;;;7.47;0.82;;;;;;;4.87;59.78;98652.50;5103112;28;20031;-61
2021/04/07 01:35:03;;;;;;;5.85;0.98;;;;;;;4.92;59.48;98642.97;5103392;28;20048;-61
2021/04/07 01:37:28;;;;;;;7.78;0.98;;;;;;;4.90;59.40;98646.44;5102921;28;20440;-61
2021/04/07 01:39:53;;;;;;;4.13;1.20;;;;;;;4.99;58.86;98654.03;5103104;28;20089;-61
2021/04/07 01:42:19;;;;;;;4.40;1.58;;;;;;;4.98;58.77;98654.03;5102606;28;20027;-61
2021/04/07 01:44:45;;;;;;;3.10;0.82;;;;;;;4.91;59.00;98651.56;5103049;28;20317;-61
2021/04/07 01:47:12;;;;;;;2.35;0.88;;;;;;;4.95;58.82;98655.78;5102945;28;20030;-61
2021/04/07 01:49:38;;;;;;;11.80;1.77;;;;;;;5.00;58.64;98667.75;5102987;28;20020;-61
2021/04/07 01:52:03;;;;;;;3.85;1.08;;;;;;;4.94;58.95;98656.66;5102961;28;20031;-61
2021/04/07 01:54:29;;;;;;;2.65;0.98;;;;;;;4.94;59.06;98661.81;5103174;28;20097;-61
2021/04/07 01:56:57;;;;;;;5.25;1.10;;;;;;;4.94;58.75;98663.50;5102771;28;20109;-61
2021/04/07 01:59:25;;;;;;;5.15;1.10;;;;;;;4.98;58.59;98667.78;5102850;28;20020;-61
2021/04/07 02:01:51;;;;;;;3.03;0.73;;;;;;;5.01;58.49;98669.44;5102827;28;20032;-61
2021/04/07 02:04:17;;;;;;;5.53;0.85;;;;;;;5.02;58.14;98666.84;5102774;28;20082;-60
2021/04/07 02:06:43;;;;;;;5.85;0.98;;;;;;;5.02;57.99;98671.13;5102849;28;20036;-61
2021/04/07 02:09:10;;;;;;;9.25;1.23;;;;;;;4.95;57.86;98670.38;5105744;28;20032;-61
2021/04/07 02:11:42;;;;;;;4.38;1.40;;;;;;;4.94;57.75;98669.53;5106361;28;20380;-61
2021/04/07 02:14:09;;;;;;;9.52;1.20;;;;;;;4.88;57.90;98674.75;5106916;28;20023;-61
2021/04/07 02:16:35;;;;;;;3.63;0.90;;;;;;;4.91;57.64;98676.41;5106533;28;20035;-61
2021/04/07 02:19:01;;;;;;;4.03;1.00;;;;;;;4.88;57.37;98672.19;5106560;28;20024;-61
2021/04/07 02:21:26;;;;;;;5.32;1.40;;;;;;;4.88;57.15;98679.91;5106510;28;20125;-61
2021/04/07 02:23:51;;;;;;;4.00;1.40;;;;;;;4.83;56.96;98679.09;5106402;28;20028;-61
2021/04/07 02:26:17;;;;;;;11.10;1.20;;;;;;;4.79;56.92;98691.13;5106317;28;20047;-61
2021/04/07 02:28:42;;;;;;;8.85;1.13;;;;;;;4.76;56.74;98691.16;5106094;28;20040;-61
2021/04/07 02:31:08;;;;;;;3.25;0.75;;;;;;;4.73;56.54;98695.53;5106441;28;20032;-61
2021/04/07 02:33:33;;;;;;;3.67;1.00;;;;;;;4.70;56.56;98697.25;5106281;28;20027;-61
2021/04/07 02:35:58;;;;;;;4.82;0.80;;;;;;;4.54;56.25;98681.16;5106228;28;20049;-60
2021/04/07 02:38:24;;;;;;;3.80;0.55;;;;;;;4.57;56.33;98698.25;5106116;28;20079;-61
2021/04/07 02:40:49;;;;;;;4.18;0.90;;;;;;;4.56;56.03;98694.84;5105699;28;20016;-61
2021/04/07 02:43:15;;;;;;;3.17;1.02;;;;;;;4.49;56.17;98703.47;5105933;28;20028;-61
2021/04/07 02:45:40;;;;;;;2.42;0.80;;;;;;;4.45;56.02;98702.69;5105975;28;20039;-60
2021/04/07 02:48:06;;;;;;;4.53;0.70;;;;;;;4.30;56.50;98697.69;5105916;28;20024;-60
2021/04/07 02:50:31;;;;;;;5.50;1.00;;;;;;;4.21;56.56;98709.78;5106138;28;20077;-60
2021/04/07 02:52:57;;;;;;;5.53;1.15;;;;;;;4.16;56.45;98708.09;5105889;28;20149;-60
2021/04/07 02:55:22;;;;;;;3.15;0.85;;;;;;;4.04;56.55;98707.34;5105644;28;20056;-60
2021/04/07 02:57:47;;;;;;;4.35;1.02;;;;;;;3.99;56.47;98703.13;5087300;28;20388;-60
2021/04/07 03:00:14;;;;;;;0.80;0.52;;;;;;;3.94;56.61;98716.88;5105955;28;20084;-60
2021/04/07 03:02:39;;;;;;;4.45;0.88;;;;;;;3.82;57.43;98702.41;5105973;28;20020;-61
2021/04/07 03:05:06;;;;;;;4.15;0.90;;;;;;;3.64;57.80;98703.44;5105758;28;20039;-60
2021/04/07 03:07:31;;;;;;;5.97;1.30;;;;;;;3.68;57.21;98709.38;5105496;28;20016;-60
2021/04/07 03:09:56;;;;;;;4.05;1.00;;;;;;;3.59;57.65;98706.00;5105409;28;20016;-60
2021/04/07 03:12:22;;;;;;;5.03;1.05;;;;;;;3.57;57.58;98710.31;5105240;28;20028;-60
2021/04/07 03:14:47;;;;;;;5.05;1.00;;;;;;;3.44;57.58;98699.28;5105508;28;20029;-61
2021/04/07 03:17:13;;;;;;;2.53;0.80;;;;;;;3.44;57.78;98713.81;5105135;28;20244;-60
2021/04/07 03:19:38;;;;;;;4.35;1.23;;;;;;;3.39;57.47;98713.84;5104407;28;20020;-60
2021/04/07 03:22:04;;;;;;;5.72;1.30;;;;;;;3.35;57.91;98717.28;5105272;28;20020;-60
2021/04/07 03:24:30;;;;;;;4.55;0.90;;;;;;;3.30;58.08;98714.75;5105419;28;20043;-60
2021/04/07 03:26:55;;;;;;;3.05;0.93;;;;;;;3.25;58.14;98713.94;5104834;28;20102;-60
2021/04/07 03:29:21;;;;;;;4.28;1.20;;;;;;;3.22;57.84;98716.50;5105115;28;20573;-61
2021/04/07 03:31:46;;;;;;;5.53;0.90;;;;;;;3.18;58.43;98717.41;5105275;28;20069;-60
2021/04/07 03:34:11;;;;;;;5.35;1.10;;;;;;;3.12;58.28;98712.28;5105157;28;20066;-61
2021/04/07 03:36:37;;;;;;;6.75;1.17;;;;;;;3.10;58.51;98719.97;5105287;28;20028;-60
2021/04/07 03:39:03;;;;;;;3.45;1.17;;;;;;;3.09;58.40;98713.16;5104829;28;20427;-60
2021/04/07 03:41:28;;;;;;;3.85;0.82;;;;;;;3.04;58.59;98717.44;5104707;28;20079;-60
2021/04/07 03:43:54;;;;;;;3.80;0.80;;;;;;;3.00;58.52;98721.75;5104830;28;20024;-60
2021/04/07 03:46:19;;;;;;;2.70;0.77;;;;;;;2.96;58.51;98726.03;5105015;28;20482;-60
2021/04/07 03:48:44;;;;;;;11.90;1.25;;;;;;;2.92;58.90;98726.94;5104628;28;20032;-60
2021/04/07 03:51:10;;;;;;;6.05;1.20;;;;;;;2.90;58.45;98733.75;5105012;28;20016;-59
2021/04/07 03:53:36;;;;;;;4.82;0.90;;;;;;;2.88;58.60;98737.16;5104727;28;20115;-59
2021/04/07 03:56:01;;;;;;;7.70;1.10;;;;;;;2.88;58.36;98742.31;5104424;28;20016;-60
2021/04/07 03:58:27;;;;;;;4.32;1.05;;;;;;;2.86;58.27;98737.19;5104468;28;20027;-60
2021/04/07 04:00:53;;;;;;;3.53;1.02;;;;;;;2.84;58.42;98744.03;5104700;28;20021;-61
2021/04/07 04:03:20;;;;;;;8.32;1.05;;;;;;;2.84;58.37;98739.75;5104457;28;20024;-61
2021/04/07 04:05:46;;;;;;;3.22;1.13;;;;;;;2.83;58.44;98743.19;5104542;28;20028;-60
2021/04/07 04:08:12;;;;;;;4.22;1.05;;;;;;;2.83;58.24;98742.31;5104385;28;20030;-60
2021/04/07 04:10:37;;;;;;;5.35;1.30;;;;;;;2.84;58.12;98747.44;5104062;28;20075;-60
2021/04/07 04:13:04;;;;;;;3.42;1.10;;;;;;;2.80;58.09;98743.19;5104317;28;20103;-60
2021/04/07 04:15:29;;;;;;;2.70;1.02;;;;;;;2.77;58.12;98747.47;5104392;28;20023;-60
2021/04/07 04:17:55;;;;;;;4.03;1.20;;;;;;;2.78;58.15;98755.16;5104266;28;20019;-60
2021/04/07 04:20:21;;;;;;;3.80;1.35;;;;;;;2.76;58.03;98754.31;5104245;28;20044;-60
2021/04/07 04:22:47;;;;;;;2.10;0.90;;;;;;;2.69;58.15;98758.59;5104029;28;20032;-60
2021/04/07 04:25:15;;;;;;;3.65;0.90;;;;;;;2.66;58.14;98768.88;5103991;28;20024;-60
2021/04/07 04:27:41;;;;;;;4.07;0.82;;;;;;;2.65;58.12;98764.59;5103679;28;20028;-60
2021/04/07 04:30:09;;;;;;;7.75;1.45;;;;;;;2.63;58.14;98768.88;5104102;28;20020;-61
2021/04/07 04:32:34;;;;;;;3.30;0.98;;;;;;;2.58;58.23;98775.72;5103774;28;20054;-63
2021/04/07 04:35:00;;;;;;;1.20;0.80;;;;;;;2.58;58.23;98773.16;5103807;28;20028;-63
2021/04/07 04:37:25;;;;;;;1.67;0.93;;;;;;;2.56;58.20;98772.28;5103606;28;20024;-62
2021/04/07 04:39:50;;;;;;;2.67;1.05;;;;;;;2.58;58.31;98780.84;5103738;28;20028;-62
2021/04/07 04:42:16;;;;;;;3.05;1.35;;;;;;;2.60;58.52;98781.69;5103225;28;20024;-62
2021/04/07 04:44:41;;;;;;;2.70;0.77;;;;;;;2.76;58.49;98773.97;5104119;28;20024;-62
2021/04/07 04:47:06;;;;;;;6.90;0.70;;;;;;;3.04;58.54;98784.97;5103850;28;20083;-61
2021/04/07 04:49:32;;;;;;;4.93;1.13;;;;;;;3.41;58.55;98773.69;5085517;28;20027;-62
2021/04/07 04:51:57;;;;;;;2.45;0.80;;;;;;;3.74;58.51;98760.66;5104192;28;20023;-62
2021/04/07 04:54:22;;;;;;;6.03;1.02;;;;;;;4.33;57.96;98783.28;5103931;28;20048;-62
2021/04/07 04:56:48;;;;;;;4.57;0.98;;;;;;;4.79;57.25;98788.84;5103502;28;20305;-63
2021/04/07 04:59:13;;;;;;;3.97;0.80;;;;;;;5.28;56.80;98770.25;5103684;28;20032;-63
2021/04/07 05:01:38;;;;;;;3.28;1.10;;;;;;;5.90;55.78;98792.56;5103620;28;20020;-63
2021/04/07 05:04:07;;;;;;;5.70;1.00;;;;;;;6.47;54.99;98799.44;5103745;28;20027;-63
2021/04/07 05:06:33;;;;;;;8.02;0.90;;;;;;;7.02;54.13;98796.69;5103752;28;20075;-62
2021/04/07 05:09:00;;;;;;;2.42;0.65;;;;;;;7.57;52.87;98784.34;5103585;28;20049;-62
2021/04/07 05:11:25;;;;;;;5.45;1.27;;;;;;;8.11;51.66;98799.50;5103001;28;20093;-62
2021/04/07 05:13:50;;;;;;;3.13;0.98;;;;;;;8.67;51.33;98805.88;5103655;28;20035;-62
2021/04/07 05:16:16;;;;;;;2.47;0.75;;;;;;;9.21;50.34;98802.72;5103603;28;20085;-62
2021/04/07 05:18:41;;;;;;;4.90;0.80;;;;;;;9.55;47.90;98804.28;5103372;28;20020;-62
2021/04/07 05:21:06;;;;;;;1.52;0.70;;;;;;;10.02;47.67;98809.78;5103513;28;20066;-62
2021/04/07 05:23:32;;;;;;;3.25;0.98;;;;;;;10.51;46.85;98804.75;5085072;28;20480;-62
2021/04/07 05:25:57;;;;;;;3.38;1.45;;;;;;;10.96;45.12;98812.75;5103345;28;20024;-63
2021/04/07 05:28:22;;;;;;;4.43;1.00;;;;;;;11.52;44.80;98809.84;5102868;28;20048;-62
2021/04/07 05:31:00;;;;;;;7.70;1.45;;;;;;;11.99;43.06;98815.88;5103329;28;20075;-62
2021/04/07 05:33:29;;;;;;;3.92;1.10;;;;;;;12.55;41.95;98808.44;5103500;28;20024;-63
2021/04/07 05:35:55;;;;;;;3.97;0.73;;;;;;;12.91;40.30;98826.91;5103421;28;20035;-63
2021/04/07 05:38:22;;;;;;;2.97;0.93;;;;;;;13.25;39.32;98828.84;5103535;28;20016;-63
2021/04/07 05:40:50;;;;;;;1.73;0.70;;;;;;;13.53;37.95;98837.19;5103149;28;20027;-62
2021/04/07 05:43:15;;;;;;;2.60;0.60;;;;;;;13.73;37.07;98833.69;5104829;28;20024;-61
2021/04/07 05:45:40;;;;;;;5.57;1.10;;;;;;;14.15;36.13;98840.44;5107488;28;20082;-62
2021/04/07 05:48:10;;;;;;;2.42;0.98;;;;;;;14.21;33.13;98840.13;5107063;28;20020;-61
2021/04/07 05:50:39;;;;;;;7.90;0.80;;;;;;;13.80;32.69;98842.03;5107414;28;20028;-61
2021/04/07 05:53:06;;;;;;;3.17;0.80;;;;;;;13.24;32.33;98847.16;5107400;28;20043;-61
2021/04/07 05:55:31;;;;;;;5.43;0.75;;;;;;;13.11;33.10;98842.50;5106973;28;20065;-64
2021/04/07 05:58:04;;;;;;;4.70;0.70;;;;;;;12.88;32.21;98841.75;5106998;28;20107;-61
2021/04/07 06:00:30;;;;;;;3.17;0.80;;;;;;;12.21;31.76;98834.09;5107245;28;20023;-62
2021/04/07 06:02:59;;;;;;;4.65;0.80;;;;;;;11.58;32.63;98848.59;5107013;28;20021;-63
2021/04/07 06:05:28;;;;;;;4.50;1.00;;;;;;;11.19;33.14;98863.03;5106932;28;20028;-62
2021/04/07 06:07:58;;;;;;;3.38;0.88;;;;;;;11.20;34.22;98862.13;5107192;28;20035;-62
2021/04/07 06:10:24;;;;;;;1.65;0.98;;;;;;;11.42;33.03;98855.31;5106792;28;20024;-63
2021/04/07 06:12:51;;;;;;;2.85;1.00;;;;;;;11.54;32.79;98862.63;5106792;28;20027;-62
2021/04/07 06:15:17;;;;;;;3.60;0.88;;;;;;;11.61;32.84;98861.50;5106893;28;20058;-62
2021/04/07 06:17:52;;;;;;;1.40;0.95;;;;;;;11.81;32.21;98859.88;5107038;28;21190;-61
2021/04/07 06:20:18;;;;;;;4.88;0.90;;;;;;;11.95;31.58;98863.72;5106933;28;20026;-62
2021/04/07 06:22:43;;;;;;;0.77;0.70;;;;;;;11.94;31.30;98846.41;5106775;28;20028;-61
2021/04/07 06:25:09;;;;;;;4.43;0.80;;;;;;;12.01;31.46;98866.91;5088595;28;20122;-63
2021/04/07 06:27:34;;;;;;;2.63;0.75;;;;;;;11.92;30.60;98856.03;5106405;28;20024;-62
2021/04/07 06:30:00;;;;;;;2.80;1.10;;;;;;;11.94;31.29;98888.03;5106597;28;20044;-61
2021/04/07 06:32:34;;;;;;;2.13;0.88;;;;;;;11.88;31.27;98873.50;5106943;28;20439;-60
2021/04/07 06:35:00;;;;;;;7.78;1.08;;;;;;;12.05;31.62;98891.06;5105975;28;20066;-59
2021/04/07 06:37:25;;;;;;;6.00;1.10;;;;;;;12.68;31.62;98896.44;5106436;28;20020;-60
2021/04/07 06:39:51;;;;;;;3.08;1.10;;;;;;;13.04;29.72;98898.38;5106727;28;20059;-61
2021/04/07 06:42:16;;;;;;;1.90;0.70;;;;;;;13.12;28.87;98891.09;5106314;28;20036;-60
2021/04/07 06:44:42;;;;;;;5.05;1.00;;;;;;;12.96;29.03;98892.66;5106598;28;20376;-61
2021/04/07 06:47:08;;;;;;;6.68;1.27;;;;;;;12.78;29.21;98900.31;5106532;28;20026;-61
2021/04/07 06:49:34;;;;;;;6.25;1.08;;;;;;;13.22;30.10;98903.72;5088027;28;20244;-62
2021/04/07 06:52:04;;;;;;;4.47;0.95;;;;;;;13.88;28.97;98899.91;5106449;28;20483;-61
2021/04/07 06:54:33;;;;;;;4.07;0.70;;;;;;;14.54;28.08;98902.06;5106408;28;20028;-60
2021/04/07 06:56:58;;;;;;;3.90;0.90;;;;;;;15.06;27.34;98899.56;5106104;28;20290;-58
2021/04/07 06:59:23;;;;;;;7.50;1.17;;;;;;;15.26;26.25;98913.34;5106154;28;20118;-60
2021/04/07 07:01:49;;;;;;;2.25;0.77;;;;;;;15.58;25.66;98905.56;5088067;28;20055;-60
2021/04/07 07:04:14;;;;;;;3.80;1.13;;;;;;;15.80;25.54;98914.91;5106311;28;20128;-61
2021/04/07 07:06:44;;;;;;;4.63;0.80;;;;;;;15.54;24.19;98904.91;5106103;28;20020;-61
2021/04/07 07:09:17;;;;;;;3.67;0.80;;;;;;;15.19;24.75;98907.59;5106013;28;20024;-62
2021/04/07 07:11:44;;;;;;;7.93;1.40;;;;;;;14.79;24.75;98918.28;5105741;28;20074;-61
2021/04/07 07:14:13;;;;;;;5.60;0.90;;;;;;;14.44;25.01;98898.22;5105987;28;20529;-61
2021/04/07 07:16:46;;;;;;;4.22;1.05;;;;;;;14.07;25.19;98899.06;5105783;28;20100;-61
2021/04/07 07:19:28;;;;;;;2.30;0.85;;;;;;;13.65;26.16;98911.41;5105833;28;20024;-61
2021/04/07 07:22:01;;;;;;;;;;;;;;;13.51;25.37;98914.66;5106703;28;20024;-60
2021/04/07 07:24:37;;;;;;;1.75;0.82;;;;;;;12.97;26.10;98910.00;5105772;28;19976;-61
2021/04/07 07:27:05;;;;;;;1.85;0.75;;;;;;;12.62;26.54;98916.59;5105690;28;20028;-60
2021/04/07 07:29:33;;;;;;;5.22;1.95;;;;;;;12.45;26.97;98906.88;5105725;28;20048;-60
2021/04/07 07:32:06;;;;;;;1.30;0.70;;;;;;;12.28;27.66;98923.16;5105861;28;20024;-61
2021/04/07 07:34:32;;;;;;;4.60;1.02;;;;;;;12.50;27.36;98924.91;5105814;28;20028;-60
2021/04/07 07:36:59;;;;;;;3.97;0.80;;;;;;;12.34;27.25;98922.91;5105730;28;20031;-59
2021/04/07 07:39:24;;;;;;;3.80;1.20;;;;;;;12.09;27.86;98929.06;5105777;28;20027;-60
2021/04/07 07:41:51;;;;;;;3.70;1.08;;;;;;;12.19;27.96;98932.16;5105106;28;20024;-61
2021/04/07 07:44:19;;;;;;;5.68;0.90;;;;;;;12.59;27.92;98931.47;5087375;28;20024;-61
2021/04/07 07:46:58;;;;;;;4.03;0.70;;;;;;;12.69;26.87;98916.34;5105447;28;20098;-59
2021/04/07 07:49:26;;;;;;;5.75;0.90;;;;;;;12.25;26.04;98912.88;5105268;28;20020;-59
2021/04/07 07:51:51;;;;;;;1.65;0.60;;;;;;;11.53;26.96;98934.53;5105499;28;20055;-61
2021/04/07 07:54:20;;;;;;;2.38;0.60;;;;;;;11.04;28.19;98934.53;5105035;28;20059;-60
2021/04/07 07:56:47;;;;;;;3.45;1.10;;;;;;;10.94;28.25;98940.94;5104832;28;20024;-60
2021/04/07 07:59:24;;;;;;;1.55;0.82;;;;;;;10.58;28.41;98931.72;5105042;28;20020;-61
2021/04/07 08:01:49;;;;;;;3.67;0.90;;;;;;;10.02;29.07;98945.47;5105063;28;20024;-61
2021/04/07 08:04:15;;;;;;;2.35;0.70;;;;;;;9.73;29.93;98934.22;5105004;28;20030;-63
2021/04/07 08:06:41;;;;;;;3.20;0.73;;;;;;;9.48;30.17;98941.81;5104501;28;20095;-62
2021/04/07 08:09:06;;;;;;;3.60;0.80;;;;;;;9.36;30.48;98950.78;5104720;28;20031;-61
2021/04/07 08:11:33;;;;;;;3.38;1.10;;;;;;;9.26;30.89;98951.03;5104508;28;20020;-60
2021/04/07 08:13:59;;;;;;;3.75;0.95;;;;;;;9.29;30.90;98944.91;5104971;28;20484;-60
2021/04/07 08:16:27;;;;;;;4.10;1.90;;;;;;;9.26;31.00;98948.44;5104938;28;20028;-60
2021/04/07 08:18:53;;;;;;;3.80;0.90;;;;;;;9.42;31.11;98951.44;5104819;28;20028;-60
2021/04/07 08:21:23;;;;;;;3.35;1.05;;;;;;;9.50;30.55;98969.41;5104680;28;20020;-61
2021/04/07 08:23:58;;;;;;;2.25;0.70;;;;;;;9.35;30.63;98965.47;5104977;28;20065;-60
2021/04/07 08:26:26;;;;;;;4.45;1.10;;;;;;;9.32;30.86;98959.50;5104479;28;20024;-61
2021/04/07 08:28:53;;;;;;;3.22;0.98;;;;;;;9.33;30.68;98959.47;5104179;28;20040;-61
2021/04/07 08:31:19;;;;;;;4.13;0.95;;;;;;;9.46;30.44;98969.50;5104701;28;20351;-60
2021/04/07 08:33:49;;;;;;;1.38;0.82;;;;;;;9.28;30.15;98958.78;5096191;28;20024;-60
2021/04/07 08:36:20;;;;;;;2.13;0.70;;;;;;;9.22;30.63;98967.53;5104816;28;20016;-60
2021/04/07 08:38:45;;;;;;;3.80;1.45;;;;;;;9.12;30.60;98969.50;5104265;28;20035;-60
2021/04/07 08:41:18;;;;;;;1.83;0.70;;;;;;;9.38;30.99;98974.88;5104025;28;20028;-61
2021/04/07 08:43:44;;;;;;;2.85;1.08;;;;;;;10.23;30.66;98973.41;5104237;28;20024;-60
2021/04/07 08:46:15;;;;;;;2.53;0.60;;;;;;;10.85;29.06;98971.50;5104372;28;20035;-60
2021/04/07 08:48:41;;;;;;;2.05;0.80;;;;;;;10.88;28.52;98976.59;5104203;28;20038;-60
2021/04/07 08:51:09;;;;;;;3.33;1.00;;;;;;;10.69;28.93;98975.50;5104293;28;20363;-61
2021/04/07 08:53:39;;;;;;;5.40;0.90;;;;;;;10.78;28.91;98980.41;5104290;28;20034;-60
2021/04/07 08:56:08;;;;;;;4.40;1.08;;;;;;;11.03;29.05;98983.03;5103845;28;20035;-60
2021/04/07 08:58:33;;;;;;;4.72;1.25;;;;;;;11.25;29.03;98989.25;5104078;28;20023;-60
2021/04/07 09:00:59;;;;;;;4.88;0.80;;;;;;;11.73;28.65;98987.56;5104175;28;20039;-60
2021/04/07 09:03:26;;;;;;;3.10;0.80;;;;;;;11.95;27.40;98989.38;5104181;28;20024;-61
2021/04/07 09:05:52;;;;;;;3.35;0.80;;;;;;;12.01;27.97;98983.13;5085720;28;20016;-61
2021/04/07 09:08:23;;;;;;;6.95;1.10;;;;;;;12.86;27.08;98975.56;5103969;28;20024;-60
2021/04/07 09:10:50;;;;;;;1.50;0.70;;;;;;;13.84;26.48;98981.00;5103946;28;20073;-61
2021/04/07 09:13:26;;;;;;;3.30;0.93;;;;;;;14.27;24.81;98970.34;5103910;28;20020;-60
2021/04/07 09:15:56;;;;;;;4.00;1.23;;;;;;;13.87;24.91;98979.09;5104056;28;20054;-61
2021/04/07 09:18:41;;;;;;;3.15;1.10;;;;;;;13.70;25.05;98984.22;5102913;28;20027;-61
2021/04/07 09:21:09;;;;;;;3.20;0.65;;;;;;;13.68;24.64;98981.69;5104035;28;20142;-61
2021/04/07 09:23:37;;;;;;;3.28;0.80;;;;;;;13.69;24.70;98977.31;5103897;28;20016;-61
2021/04/07 09:26:13;;;;;;;4.85;1.00;;;;;;;13.86;24.82;98987.84;5103567;28;20023;-60
2021/04/07 09:28:40;;;;;;;3.95;1.10;;;;;;;13.38;25.02;98984.69;5103496;28;20044;-61
2021/04/07 09:31:12;;;;;;;1.40;0.73;;;;;;;13.03;25.13;98974.84;5103680;28;20091;-61
2021/04/07 09:33:40;;;;;;;2.13;1.05;;;;;;;12.84;25.40;98974.75;5104000;28;20020;-61
2021/04/07 09:36:07;;;;;;;1.83;0.73;;;;;;;12.87;25.64;98980.72;5103694;28;20065;-60
2021/04/07 09:38:34;;;;;;;2.08;0.88;;;;;;;13.07;25.33;98979.00;5103481;28;20049;-61
2021/04/07 09:41:18;;;;;;;2.33;0.80;;;;;;;13.17;25.13;98984.69;5103397;28;20055;-60
2021/04/07 09:43:44;;;;;;;4.05;0.90;;;;;;;13.70;24.59;98986.84;5103776;28;20031;-59
2021/04/07 09:46:10;;;;;;;4.47;1.27;;;;;;;14.13;24.30;98987.50;5103714;28;20376;-59
2021/04/07 09:48:43;;;;;;;3.60;0.95;;;;;;;14.83;24.32;98983.41;5103581;28;20480;-61
2021/04/07 09:51:31;;;;;;;3.75;0.90;;;;;;;15.46;22.84;98983.75;5103545;28;20047;-58
2021/04/07 09:54:06;;;;;;;3.80;0.70;;;;;;;16.38;22.23;98983.31;5103926;28;20043;-59
2021/04/07 09:56:32;;;;;;;3.08;1.00;;;;;;;17.12;21.66;98981.84;5084953;28;20038;-59
2021/04/07 09:58:58;;;;;;;1.25;0.65;;;;;;;18.27;21.13;98980.19;5103338;28;20095;-58
2021/04/07 10:01:25;;;;;;;2.58;0.63;;;;;;;19.28;20.38;98980.69;5103446;28;20074;-59
2021/04/07 10:03:54;;;;;;;5.03;1.38;;;;;;;20.03;19.43;98985.31;5103448;28;20092;-59
2021/04/07 10:06:25;;;;;;;3.67;0.90;;;;;;;20.59;18.35;98972.56;5103559;28;20028;-59
2021/04/07 10:09:07;;;;;;;5.22;0.80;;;;;;;20.06;17.33;98991.19;5103207;28;20048;-59
2021/04/07 10:11:38;;;;;;;2.60;0.82;;;;;;;19.27;18.28;98989.53;5102794;28;20365;-60
2021/04/07 10:14:04;;;;;;;7.22;0.95;;;;;;;19.28;17.88;98993.84;5103410;28;20027;-60
2021/04/07 10:16:35;;;;;;;3.05;0.70;;;;;;;19.12;17.98;98985.31;5103266;28;20173;-59
2021/04/07 10:19:04;;;;;;;2.38;0.70;;;;;;;18.89;16.97;98999.03;5103237;28;20016;-59
2021/04/07 10:21:29;;;;;;;2.63;0.73;;;;;;;18.54;16.90;99005.66;5103294;28;20031;-59
2021/04/07 10:23:57;;;;;;;3.30;0.90;;;;;;;17.86;17.71;98996.72;5103397;28;20048;-60
2021/04/07 10:26:23;;;;;;;2.72;0.70;;;;;;;17.45;17.83;98999.13;5103247;28;20032;-59
2021/04/07 10:29:02;;;;;;;2.60;0.50;;;;;;;17.32;18.74;98997.25;5103608;28;20114;-59
2021/04/07 10:31:28;;;;;;;2.65;0.57;;;;;;;17.78;18.30;99000.66;5106904;28;20024;-59
2021/04/07 10:34:02;;;;;;;11.63;1.15;;;;;;;18.37;17.89;99011.97;5107075;28;20106;-60
2021/04/07 10:36:29;;;;;;;3.33;0.80;;;;;;;18.94;17.72;99006.59;5106948;28;20024;-61
2021/04/07 10:38:56;;;;;;;4.50;1.35;;;;;;;19.28;16.28;98995.66;5106629;28;20031;-60
2021/04/07 10:41:25;;;;;;;3.83;0.70;;;;;;;18.50;16.97;99008.56;5106436;28;20020;-61
2021/04/07 10:43:51;;;;;;;2.80;0.82;;;;;;;18.17;17.40;99002.72;5088322;28;20020;-61
2021/04/07 10:46:16;;;;;;;1.40;0.50;;;;;;;17.84;17.50;98999.44;5106891;28;20091;-60
2021/04/07 10:48:42;;;;;;;2.20;0.60;;;;;;;17.22;17.45;99004.00;5106539;28;20027;-60
2021/04/07 10:51:09;;;;;;;2.28;0.77;;;;;;;16.73;18.21;99004.09;5106468;28;20028;-60
2021/04/07 10:53:42;;;;;;;2.45;0.70;;;;;;;16.21;18.47;99018.31;5106439;28;20028;-60
2021/04/07 10:56:16;;;;;;;3.08;0.90;;;;;;;15.27;19.30;99011.78;5087923;28;20020;-61
2021/04/07 10:58:43;;;;;;;1.55;0.57;;;;;;;14.51;20.14;99006.66;5106249;28;20035;-60
2021/04/07 11:01:10;;;;;;;2.28;0.65;;;;;;;13.92;20.63;99018.03;5106564;28;20027;-59
2021/04/07 11:03:36;;;;;;;2.97;0.60;;;;;;;13.97;21.40;99025.66;5106219;28;20028;-59
2021/04/07 11:06:02;;;;;;;2.78;0.55;;;;;;;14.79;20.89;99018.41;5106288;28;20039;-60
2021/04/07 11:08:38;;;;;;;5.28;0.90;;;;;;;15.87;19.56;99015.69;5106108;28;20028;-59
2021/04/07 11:11:05;;;;;;;1.45;0.57;;;;;;;16.76;19.29;99012.72;5105894;28;20090;-59
2021/04/07 11:13:32;;;;;;;1.23;0.65;;;;;;;18.13;18.59;99012.56;5106187;28;20099;-60
2021/04/07 11:16:10;;;;;;;2.35;0.55;;;;;;;19.32;17.24;99016.41;5106089;28;20020;-60
2021/04/07 11:18:39;;;;;;;2.25;0.88;;;;;;;19.23;16.84;99017.03;5105898;28;20031;-60
2021/04/07 11:21:06;;;;;;;2.75;0.60;;;;;;;18.49;16.57;99018.22;5105864;28;20020;-60
2021/04/07 11:23:32;;;;;;;2.35;0.70;;;;;;;18.36;16.94;99025.19;5105665;28;20047;-60
2021/04/07 11:25:57;;;;;;;4.63;0.60;;;;;;;18.96;17.11;99025.75;5105480;28;20019;-61
2021/04/07 11:28:23;;;;;;;1.70;0.60;;;;;;;19.27;16.64;99026.38;5105601;28;20582;-60
2021/04/07 11:36:21;;;;;;;2.27;0.67;;;;;;;16.09;18.37;99030.25;5106021;28;20103;-60
2021/04/07 11:39:34;;;;;;;2.20;0.73;;;;;;;15.48;18.71;99036.81;5105571;28;20061;-60
2021/04/07 11:46:29;;;;;;;1.42;0.80;;;;;;;13.57;22.42;99038.66;5105658;28;20027;-59
2021/04/07 11:48:55;;;;;;;0.55;0.47;;;;;;;13.04;24.74;99028.63;5105356;28;20024;-60